sensor_id;sensor_type;location;lat;lon;timestamp;temperature;humidity
57753;DHT22;43583;53.132;6.574;2023-11-21T00:00:00;10.00;99.90
57753;DHT22;43583;53.132;6.574;2023-11-21T00:02:26;10.00;99.90
57753;DHT22;43583;53.132;6.574;2023-11-21T00:04:52;10.00;99.90
57753;DHT22;43583;53.132;6.574;2023-11-21T00:07:18;10.00;99.90
57753;DHT22;43583;53.132;6.574;2023-11-21T00:09:43;10.00;99.90
57753;DHT22;43583;53.132;6.574;2023-11-21T00:12:09;10.10;99.90
57753;DHT22;43583;53.132;6.574;2023-11-21T00:14:38;10.10;99.90
57753;DHT22;43583;53.132;6.574;2023-11-21T00:17:04;10.10;99.90
57753;DHT22;43583;53.132;6.574;2023-11-21T00:19:31;10.10;99.90
57753;DHT22;43583;53.132;6.574;2023-11-21T00:21:56;10.10;99.90
57753;DHT22;43583;53.132;6.574;2023-11-21T00:24:23;10.10;99.90
57753;DHT22;43583;53.132;6.574;2023-11-21T00:26:50;10.10;99.90
57753;DHT22;43583;53.132;6.574;2023-11-21T00:29:16;10.10;99.90
57753;DHT22;43583;53.132;6.574;2023-11-21T00:31:43;10.10;99.90
57753;DHT22;43583;53.132;6.574;2023-11-21T00:34:09;10.10;99.90
57753;DHT22;43583;53.132;6.574;2023-11-21T00:36:35;10.20;99.90
57753;DHT22;43583;53.132;6.574;2023-11-21T00:39:00;10.20;99.90
57753;DHT22;43583;53.132;6.574;2023-11-21T00:41:27;10.20;99.90
57753;DHT22;43583;53.132;6.574;2023-11-21T00:43:53;10.20;99.90
57753;DHT22;43583;53.132;6.574;2023-11-21T00:46:19;10.30;99.90
57753;DHT22;43583;53.132;6.574;2023-11-21T00:48:45;10.30;99.90
57753;DHT22;43583;53.132;6.574;2023-11-21T00:51:10;10.30;99.90
57753;DHT22;43583;53.132;6.574;2023-11-21T00:53:36;10.30;99.90
57753;DHT22;43583;53.132;6.574;2023-11-21T00:56:01;10.30;99.90
57753;DHT22;43583;53.132;6.574;2023-11-21T00:58:28;10.30;99.90
57753;DHT22;43583;53.132;6.574;2023-11-21T01:00:54;10.30;99.90
57753;DHT22;43583;53.132;6.574;2023-11-21T01:03:19;10.30;99.90
57753;DHT22;43583;53.132;6.574;2023-11-21T01:05:45;10.30;99.90
57753;DHT22;43583;53.132;6.574;2023-11-21T01:08:11;10.40;99.90
57753;DHT22;43583;53.132;6.574;2023-11-21T01:10:37;10.30;99.90
57753;DHT22;43583;53.132;6.574;2023-11-21T01:13:03;10.40;99.90
57753;DHT22;43583;53.132;6.574;2023-11-21T01:15:32;10.30;99.90
57753;DHT22;43583;53.132;6.574;2023-11-21T01:17:58;10.40;99.90
57753;DHT22;43583;53.132;6.574;2023-11-21T01:20:24;10.40;99.90
57753;DHT22;43583;53.132;6.574;2023-11-21T01:22:49;10.40;99.90
57753;DHT22;43583;53.132;6.574;2023-11-21T01:25:16;10.40;99.90
57753;DHT22;43583;53.132;6.574;2023-11-21T01:27:42;10.40;99.90
57753;DHT22;43583;53.132;6.574;2023-11-21T01:30:08;10.40;99.90
57753;DHT22;43583;53.132;6.574;2023-11-21T01:32:36;10.40;99.90
57753;DHT22;43583;53.132;6.574;2023-11-21T01:35:02;10.40;99.90
57753;DHT22;43583;53.132;6.574;2023-11-21T01:37:28;10.40;99.90
57753;DHT22;43583;53.132;6.574;2023-11-21T01:39:54;10.40;99.90
57753;DHT22;43583;53.132;6.574;2023-11-21T01:42:23;10.40;99.90
57753;DHT22;43583;53.132;6.574;2023-11-21T01:44:48;10.40;99.90
57753;DHT22;43583;53.132;6.574;2023-11-21T01:47:14;10.40;99.90
57753;DHT22;43583;53.132;6.574;2023-11-21T01:49:44;10.40;99.90
57753;DHT22;43583;53.132;6.574;2023-11-21T01:52:10;10.50;99.90
57753;DHT22;43583;53.132;6.574;2023-11-21T01:54:37;10.50;99.90
57753;DHT22;43583;53.132;6.574;2023-11-21T01:57:04;10.50;99.90
57753;DHT22;43583;53.132;6.574;2023-11-21T01:59:36;10.50;99.90
57753;DHT22;43583;53.132;6.574;2023-11-21T02:02:05;10.50;99.90
57753;DHT22;43583;53.132;6.574;2023-11-21T02:04:35;10.50;99.90
57753;DHT22;43583;53.132;6.574;2023-11-21T02:07:04;10.50;99.90
57753;DHT22;43583;53.132;6.574;2023-11-21T02:09:32;10.50;99.90
57753;DHT22;43583;53.132;6.574;2023-11-21T02:11:59;10.50;99.90
57753;DHT22;43583;53.132;6.574;2023-11-21T02:14:28;10.40;99.90
57753;DHT22;43583;53.132;6.574;2023-11-21T02:16:54;10.50;99.90
57753;DHT22;43583;53.132;6.574;2023-11-21T02:19:21;10.40;99.90
57753;DHT22;43583;53.132;6.574;2023-11-21T02:21:56;10.40;99.90
57753;DHT22;43583;53.132;6.574;2023-11-21T02:24:23;10.40;99.90
57753;DHT22;43583;53.132;6.574;2023-11-21T02:26:50;10.50;99.90
57753;DHT22;43583;53.132;6.574;2023-11-21T02:29:19;10.50;99.90
57753;DHT22;43583;53.132;6.574;2023-11-21T02:31:49;10.50;99.90
57753;DHT22;43583;53.132;6.574;2023-11-21T02:34:16;10.40;99.90
57753;DHT22;43583;53.132;6.574;2023-11-21T02:36:45;10.40;99.90
57753;DHT22;43583;53.132;6.574;2023-11-21T02:39:11;10.50;99.90
57753;DHT22;43583;53.132;6.574;2023-11-21T02:41:37;10.50;99.90
57753;DHT22;43583;53.132;6.574;2023-11-21T02:44:04;10.40;99.90
57753;DHT22;43583;53.132;6.574;2023-11-21T02:46:31;10.50;99.90
57753;DHT22;43583;53.132;6.574;2023-11-21T02:48:57;10.50;99.90
57753;DHT22;43583;53.132;6.574;2023-11-21T02:51:23;10.40;99.90
57753;DHT22;43583;53.132;6.574;2023-11-21T02:53:49;10.40;99.90
57753;DHT22;43583;53.132;6.574;2023-11-21T02:56:16;10.40;99.90
57753;DHT22;43583;53.132;6.574;2023-11-21T02:58:42;10.50;99.90
57753;DHT22;43583;53.132;6.574;2023-11-21T03:01:09;10.40;99.90
57753;DHT22;43583;53.132;6.574;2023-11-21T03:03:36;10.50;99.90
57753;DHT22;43583;53.132;6.574;2023-11-21T03:06:06;10.40;99.90
57753;DHT22;43583;53.132;6.574;2023-11-21T03:08:32;10.40;99.90
57753;DHT22;43583;53.132;6.574;2023-11-21T03:10:58;10.50;99.90
57753;DHT22;43583;53.132;6.574;2023-11-21T03:13:23;10.40;99.90
57753;DHT22;43583;53.132;6.574;2023-11-21T03:15:49;10.50;99.90
57753;DHT22;43583;53.132;6.574;2023-11-21T03:18:15;10.40;99.90
57753;DHT22;43583;53.132;6.574;2023-11-21T03:20:40;10.50;99.90
57753;DHT22;43583;53.132;6.574;2023-11-21T03:23:06;10.40;99.90
57753;DHT22;43583;53.132;6.574;2023-11-21T03:25:32;10.40;99.90
57753;DHT22;43583;53.132;6.574;2023-11-21T03:27:57;10.40;99.90
57753;DHT22;43583;53.132;6.574;2023-11-21T03:30:23;10.40;99.90
57753;DHT22;43583;53.132;6.574;2023-11-21T03:32:49;10.40;99.90
57753;DHT22;43583;53.132;6.574;2023-11-21T03:35:14;10.40;99.90
57753;DHT22;43583;53.132;6.574;2023-11-21T03:37:40;10.40;99.90
57753;DHT22;43583;53.132;6.574;2023-11-21T03:40:07;10.40;99.90
57753;DHT22;43583;53.132;6.574;2023-11-21T03:42:38;10.40;99.90
57753;DHT22;43583;53.132;6.574;2023-11-21T03:45:04;10.40;99.90
57753;DHT22;43583;53.132;6.574;2023-11-21T03:47:30;10.40;99.90
57753;DHT22;43583;53.132;6.574;2023-11-21T03:49:55;10.40;99.90
57753;DHT22;43583;53.132;6.574;2023-11-21T03:52:21;10.40;99.90
57753;DHT22;43583;53.132;6.574;2023-11-21T03:54:47;10.40;99.90
57753;DHT22;43583;53.132;6.574;2023-11-21T03:57:12;10.40;99.90
57753;DHT22;43583;53.132;6.574;2023-11-21T03:59:41;10.40;99.90
57753;DHT22;43583;53.132;6.574;2023-11-21T04:02:07;10.40;99.90
57753;DHT22;43583;53.132;6.574;2023-11-21T04:04:33;10.40;99.90
57753;DHT22;43583;53.132;6.574;2023-11-21T04:06:59;10.30;99.90
57753;DHT22;43583;53.132;6.574;2023-11-21T04:09:25;10.40;99.90
57753;DHT22;43583;53.132;6.574;2023-11-21T04:11:51;10.30;99.90
57753;DHT22;43583;53.132;6.574;2023-11-21T04:14:17;10.30;99.90
57753;DHT22;43583;53.132;6.574;2023-11-21T04:16:43;10.30;99.90
57753;DHT22;43583;53.132;6.574;2023-11-21T04:19:09;10.30;99.90
57753;DHT22;43583;53.132;6.574;2023-11-21T04:21:36;10.30;99.90
57753;DHT22;43583;53.132;6.574;2023-11-21T04:24:01;10.30;99.90
57753;DHT22;43583;53.132;6.574;2023-11-21T04:26:27;10.30;99.90
57753;DHT22;43583;53.132;6.574;2023-11-21T04:28:53;10.30;99.90
57753;DHT22;43583;53.132;6.574;2023-11-21T04:31:18;10.30;99.90
57753;DHT22;43583;53.132;6.574;2023-11-21T04:33:44;10.30;99.90
57753;DHT22;43583;53.132;6.574;2023-11-21T04:36:10;10.30;99.90
57753;DHT22;43583;53.132;6.574;2023-11-21T04:38:36;10.30;99.90
57753;DHT22;43583;53.132;6.574;2023-11-21T04:41:01;10.30;99.90
57753;DHT22;43583;53.132;6.574;2023-11-21T04:43:27;10.30;99.90
57753;DHT22;43583;53.132;6.574;2023-11-21T04:45:54;10.30;99.90
57753;DHT22;43583;53.132;6.574;2023-11-21T04:48:20;10.30;99.90
57753;DHT22;43583;53.132;6.574;2023-11-21T04:50:45;10.30;99.90
57753;DHT22;43583;53.132;6.574;2023-11-21T04:53:11;10.30;99.90
57753;DHT22;43583;53.132;6.574;2023-11-21T04:55:39;10.30;99.90
57753;DHT22;43583;53.132;6.574;2023-11-21T04:58:05;10.30;99.90
57753;DHT22;43583;53.132;6.574;2023-11-21T05:00:31;10.30;99.90
57753;DHT22;43583;53.132;6.574;2023-11-21T05:02:56;10.30;99.90
57753;DHT22;43583;53.132;6.574;2023-11-21T05:05:22;10.30;99.90
57753;DHT22;43583;53.132;6.574;2023-11-21T05:07:47;10.30;99.90
57753;DHT22;43583;53.132;6.574;2023-11-21T05:10:14;10.30;99.90
57753;DHT22;43583;53.132;6.574;2023-11-21T05:12:41;10.30;99.90
57753;DHT22;43583;53.132;6.574;2023-11-21T05:15:08;10.30;99.90
57753;DHT22;43583;53.132;6.574;2023-11-21T05:17:40;10.30;99.90
57753;DHT22;43583;53.132;6.574;2023-11-21T05:20:10;10.30;99.90
57753;DHT22;43583;53.132;6.574;2023-11-21T05:22:37;10.40;99.90
57753;DHT22;43583;53.132;6.574;2023-11-21T05:25:03;10.40;99.90
57753;DHT22;43583;53.132;6.574;2023-11-21T05:27:32;10.30;99.90
57753;DHT22;43583;53.132;6.574;2023-11-21T05:29:57;10.30;99.90
57753;DHT22;43583;53.132;6.574;2023-11-21T05:32:26;10.30;99.90
57753;DHT22;43583;53.132;6.574;2023-11-21T05:34:52;10.30;99.90
57753;DHT22;43583;53.132;6.574;2023-11-21T05:37:18;10.40;99.90
57753;DHT22;43583;53.132;6.574;2023-11-21T05:39:43;10.30;99.90
57753;DHT22;43583;53.132;6.574;2023-11-21T05:42:09;10.30;99.90
57753;DHT22;43583;53.132;6.574;2023-11-21T05:44:36;10.40;99.90
57753;DHT22;43583;53.132;6.574;2023-11-21T05:47:02;10.30;99.90
57753;DHT22;43583;53.132;6.574;2023-11-21T05:49:29;10.40;99.90
57753;DHT22;43583;53.132;6.574;2023-11-21T05:51:55;10.40;99.90
57753;DHT22;43583;53.132;6.574;2023-11-21T05:54:21;10.30;99.90
57753;DHT22;43583;53.132;6.574;2023-11-21T05:56:47;10.30;99.90
57753;DHT22;43583;53.132;6.574;2023-11-21T05:59:13;10.30;99.90
57753;DHT22;43583;53.132;6.574;2023-11-21T06:01:38;10.30;99.90
57753;DHT22;43583;53.132;6.574;2023-11-21T06:04:05;10.30;99.90
57753;DHT22;43583;53.132;6.574;2023-11-21T06:06:30;10.30;99.90
57753;DHT22;43583;53.132;6.574;2023-11-21T06:08:57;10.30;99.90
57753;DHT22;43583;53.132;6.574;2023-11-21T06:11:22;10.30;99.90
57753;DHT22;43583;53.132;6.574;2023-11-21T06:13:49;10.30;99.90
57753;DHT22;43583;53.132;6.574;2023-11-21T06:16:15;10.30;99.90
57753;DHT22;43583;53.132;6.574;2023-11-21T06:18:44;10.30;99.90
57753;DHT22;43583;53.132;6.574;2023-11-21T06:21:10;10.30;99.90
57753;DHT22;43583;53.132;6.574;2023-11-21T06:23:36;10.30;99.90
57753;DHT22;43583;53.132;6.574;2023-11-21T06:26:01;10.40;99.90
57753;DHT22;43583;53.132;6.574;2023-11-21T06:28:27;10.30;99.90
57753;DHT22;43583;53.132;6.574;2023-11-21T06:30:52;10.30;99.90
57753;DHT22;43583;53.132;6.574;2023-11-21T06:33:18;10.30;99.90
57753;DHT22;43583;53.132;6.574;2023-11-21T06:35:44;10.40;99.90
57753;DHT22;43583;53.132;6.574;2023-11-21T06:38:10;10.40;99.90
57753;DHT22;43583;53.132;6.574;2023-11-21T06:40:36;10.40;99.90
57753;DHT22;43583;53.132;6.574;2023-11-21T06:43:01;10.30;99.90
57753;DHT22;43583;53.132;6.574;2023-11-21T06:45:27;10.30;99.90
57753;DHT22;43583;53.132;6.574;2023-11-21T06:47:53;10.30;99.90
57753;DHT22;43583;53.132;6.574;2023-11-21T06:50:19;10.30;99.90
57753;DHT22;43583;53.132;6.574;2023-11-21T06:52:44;10.30;99.90
57753;DHT22;43583;53.132;6.574;2023-11-21T06:55:10;10.30;99.90
57753;DHT22;43583;53.132;6.574;2023-11-21T06:57:36;10.30;99.90
57753;DHT22;43583;53.132;6.574;2023-11-21T07:00:02;10.30;99.90
57753;DHT22;43583;53.132;6.574;2023-11-21T07:02:28;10.30;99.90
57753;DHT22;43583;53.132;6.574;2023-11-21T07:04:54;10.20;99.90
57753;DHT22;43583;53.132;6.574;2023-11-21T07:07:20;10.20;99.90
57753;DHT22;43583;53.132;6.574;2023-11-21T07:09:45;10.20;99.90
57753;DHT22;43583;53.132;6.574;2023-11-21T07:12:11;10.10;99.90
57753;DHT22;43583;53.132;6.574;2023-11-21T07:14:37;10.20;99.90
57753;DHT22;43583;53.132;6.574;2023-11-21T07:17:04;10.10;99.90
57753;DHT22;43583;53.132;6.574;2023-11-21T07:19:30;10.10;99.90
57753;DHT22;43583;53.132;6.574;2023-11-21T07:21:56;10.10;99.90
57753;DHT22;43583;53.132;6.574;2023-11-21T07:24:22;10.10;99.90
57753;DHT22;43583;53.132;6.574;2023-11-21T07:26:48;10.10;99.90
57753;DHT22;43583;53.132;6.574;2023-11-21T07:29:14;10.10;99.90
57753;DHT22;43583;53.132;6.574;2023-11-21T07:31:40;10.00;99.90
57753;DHT22;43583;53.132;6.574;2023-11-21T07:34:06;10.10;99.90
57753;DHT22;43583;53.132;6.574;2023-11-21T07:36:33;10.10;99.90
57753;DHT22;43583;53.132;6.574;2023-11-21T07:38:59;10.10;99.90
57753;DHT22;43583;53.132;6.574;2023-11-21T07:41:24;10.00;99.90
57753;DHT22;43583;53.132;6.574;2023-11-21T07:43:50;10.00;99.90
57753;DHT22;43583;53.132;6.574;2023-11-21T07:46:16;10.10;99.90
57753;DHT22;43583;53.132;6.574;2023-11-21T07:48:42;10.00;99.90
57753;DHT22;43583;53.132;6.574;2023-11-21T07:51:09;10.00;99.90
57753;DHT22;43583;53.132;6.574;2023-11-21T07:53:35;10.00;99.90
57753;DHT22;43583;53.132;6.574;2023-11-21T07:56:06;10.00;99.90
57753;DHT22;43583;53.132;6.574;2023-11-21T07:58:31;10.00;99.90
57753;DHT22;43583;53.132;6.574;2023-11-21T08:00:59;10.00;99.90
57753;DHT22;43583;53.132;6.574;2023-11-21T08:03:25;10.00;99.90
57753;DHT22;43583;53.132;6.574;2023-11-21T08:05:52;10.00;99.90
57753;DHT22;43583;53.132;6.574;2023-11-21T08:08:18;10.00;99.90
57753;DHT22;43583;53.132;6.574;2023-11-21T08:10:44;9.90;99.90
57753;DHT22;43583;53.132;6.574;2023-11-21T08:13:13;9.90;99.90
57753;DHT22;43583;53.132;6.574;2023-11-21T08:15:42;9.90;99.90
57753;DHT22;43583;53.132;6.574;2023-11-21T08:18:11;9.90;99.90
57753;DHT22;43583;53.132;6.574;2023-11-21T08:20:38;9.90;99.90
57753;DHT22;43583;53.132;6.574;2023-11-21T08:23:05;9.90;99.90
57753;DHT22;43583;53.132;6.574;2023-11-21T08:25:31;9.90;99.90
57753;DHT22;43583;53.132;6.574;2023-11-21T08:27:57;9.90;99.90
57753;DHT22;43583;53.132;6.574;2023-11-21T08:30:23;9.80;99.90
57753;DHT22;43583;53.132;6.574;2023-11-21T08:32:49;9.80;99.90
57753;DHT22;43583;53.132;6.574;2023-11-21T08:35:17;9.80;99.90
57753;DHT22;43583;53.132;6.574;2023-11-21T08:37:43;9.80;99.90
57753;DHT22;43583;53.132;6.574;2023-11-21T08:40:09;9.80;99.90
57753;DHT22;43583;53.132;6.574;2023-11-21T08:42:37;9.70;99.90
57753;DHT22;43583;53.132;6.574;2023-11-21T08:45:04;9.70;99.90
57753;DHT22;43583;53.132;6.574;2023-11-21T08:47:29;9.70;99.90
57753;DHT22;43583;53.132;6.574;2023-11-21T08:49:55;9.70;99.90
57753;DHT22;43583;53.132;6.574;2023-11-21T08:52:21;9.70;99.90
57753;DHT22;43583;53.132;6.574;2023-11-21T08:54:50;9.70;99.90
57753;DHT22;43583;53.132;6.574;2023-11-21T08:57:22;9.80;99.90
57753;DHT22;43583;53.132;6.574;2023-11-21T08:59:48;9.80;99.90
57753;DHT22;43583;53.132;6.574;2023-11-21T09:02:13;9.80;99.90
57753;DHT22;43583;53.132;6.574;2023-11-21T09:04:39;9.80;99.90
57753;DHT22;43583;53.132;6.574;2023-11-21T09:07:04;9.80;99.90
57753;DHT22;43583;53.132;6.574;2023-11-21T09:09:30;9.80;99.90
57753;DHT22;43583;53.132;6.574;2023-11-21T09:11:56;9.80;99.90
57753;DHT22;43583;53.132;6.574;2023-11-21T09:14:22;9.80;99.90
57753;DHT22;43583;53.132;6.574;2023-11-21T09:16:48;9.80;99.90
57753;DHT22;43583;53.132;6.574;2023-11-21T09:19:16;9.70;99.90
57753;DHT22;43583;53.132;6.574;2023-11-21T09:21:41;9.70;99.90
57753;DHT22;43583;53.132;6.574;2023-11-21T09:24:07;9.70;99.90
57753;DHT22;43583;53.132;6.574;2023-11-21T09:26:34;9.60;99.90
57753;DHT22;43583;53.132;6.574;2023-11-21T09:29:00;9.60;99.90
57753;DHT22;43583;53.132;6.574;2023-11-21T09:31:27;9.60;99.90
57753;DHT22;43583;53.132;6.574;2023-11-21T09:33:53;9.60;99.90
57753;DHT22;43583;53.132;6.574;2023-11-21T09:36:18;9.70;99.90
57753;DHT22;43583;53.132;6.574;2023-11-21T09:38:44;9.70;99.90
57753;DHT22;43583;53.132;6.574;2023-11-21T09:41:18;9.80;99.90
57753;DHT22;43583;53.132;6.574;2023-11-21T09:43:47;9.80;99.90
57753;DHT22;43583;53.132;6.574;2023-11-21T09:46:18;9.80;99.90
57753;DHT22;43583;53.132;6.574;2023-11-21T09:48:50;9.80;99.90
57753;DHT22;43583;53.132;6.574;2023-11-21T09:51:19;9.80;99.90
57753;DHT22;43583;53.132;6.574;2023-11-21T09:53:47;9.70;99.90
57753;DHT22;43583;53.132;6.574;2023-11-21T09:56:12;9.70;99.90
57753;DHT22;43583;53.132;6.574;2023-11-21T09:58:41;9.70;99.90
57753;DHT22;43583;53.132;6.574;2023-11-21T10:01:07;9.70;99.90
57753;DHT22;43583;53.132;6.574;2023-11-21T10:03:35;9.70;99.90
57753;DHT22;43583;53.132;6.574;2023-11-21T10:06:03;9.80;99.90
57753;DHT22;43583;53.132;6.574;2023-11-21T10:08:31;9.70;99.90
57753;DHT22;43583;53.132;6.574;2023-11-21T10:10:57;9.70;99.90
57753;DHT22;43583;53.132;6.574;2023-11-21T10:13:25;9.70;99.90
57753;DHT22;43583;53.132;6.574;2023-11-21T10:15:52;9.70;99.90
57753;DHT22;43583;53.132;6.574;2023-11-21T10:18:18;9.70;99.90
57753;DHT22;43583;53.132;6.574;2023-11-21T10:20:45;9.70;99.90
57753;DHT22;43583;53.132;6.574;2023-11-21T10:23:21;9.60;99.90
57753;DHT22;43583;53.132;6.574;2023-11-21T10:25:47;9.60;99.90
57753;DHT22;43583;53.132;6.574;2023-11-21T10:28:15;9.60;99.90
57753;DHT22;43583;53.132;6.574;2023-11-21T10:30:41;9.70;99.90
57753;DHT22;43583;53.132;6.574;2023-11-21T10:33:07;9.70;99.90
57753;DHT22;43583;53.132;6.574;2023-11-21T10:35:43;9.70;99.90
57753;DHT22;43583;53.132;6.574;2023-11-21T10:38:12;9.70;99.90
57753;DHT22;43583;53.132;6.574;2023-11-21T10:40:40;9.70;99.90
57753;DHT22;43583;53.132;6.574;2023-11-21T10:43:07;9.70;99.90
57753;DHT22;43583;53.132;6.574;2023-11-21T10:45:39;9.70;99.90
57753;DHT22;43583;53.132;6.574;2023-11-21T10:48:10;9.70;99.90
57753;DHT22;43583;53.132;6.574;2023-11-21T10:50:36;9.70;99.90
57753;DHT22;43583;53.132;6.574;2023-11-21T10:53:05;9.80;99.90
57753;DHT22;43583;53.132;6.574;2023-11-21T10:55:33;9.80;99.90
57753;DHT22;43583;53.132;6.574;2023-11-21T10:58:03;9.90;99.90
57753;DHT22;43583;53.132;6.574;2023-11-21T11:00:34;9.90;99.90
57753;DHT22;43583;53.132;6.574;2023-11-21T11:03:00;9.90;99.90
57753;DHT22;43583;53.132;6.574;2023-11-21T11:05:27;9.90;99.90
57753;DHT22;43583;53.132;6.574;2023-11-21T11:08:04;9.80;99.90
57753;DHT22;43583;53.132;6.574;2023-11-21T11:10:30;9.70;99.90
57753;DHT22;43583;53.132;6.574;2023-11-21T11:12:57;9.70;99.90
57753;DHT22;43583;53.132;6.574;2023-11-21T11:15:24;9.60;99.90
57753;DHT22;43583;53.132;6.574;2023-11-21T11:17:49;9.60;99.90
57753;DHT22;43583;53.132;6.574;2023-11-21T11:20:16;9.60;99.90
57753;DHT22;43583;53.132;6.574;2023-11-21T11:26:01;9.50;99.90
57753;DHT22;43583;53.132;6.574;2023-11-21T11:35:34;9.40;99.90
57753;DHT22;43583;53.132;6.574;2023-11-21T11:50:11;9.50;99.90
57753;DHT22;43583;53.132;6.574;2023-11-21T11:57:34;9.60;99.90
57753;DHT22;43583;53.132;6.574;2023-11-21T12:03:43;9.50;99.90
57753;DHT22;43583;53.132;6.574;2023-11-21T12:06:09;9.40;99.90
57753;DHT22;43583;53.132;6.574;2023-11-21T12:08:37;9.40;99.90
57753;DHT22;43583;53.132;6.574;2023-11-21T12:11:04;9.40;99.90
57753;DHT22;43583;53.132;6.574;2023-11-21T12:13:30;9.30;99.90
57753;DHT22;43583;53.132;6.574;2023-11-21T12:15:56;9.30;99.90
57753;DHT22;43583;53.132;6.574;2023-11-21T12:18:21;9.30;99.90
57753;DHT22;43583;53.132;6.574;2023-11-21T12:20:47;9.40;99.90
57753;DHT22;43583;53.132;6.574;2023-11-21T12:23:15;9.40;99.90
57753;DHT22;43583;53.132;6.574;2023-11-21T12:25:42;9.50;99.90
57753;DHT22;43583;53.132;6.574;2023-11-21T12:28:08;9.50;99.90
57753;DHT22;43583;53.132;6.574;2023-11-21T12:30:35;9.60;99.90
57753;DHT22;43583;53.132;6.574;2023-11-21T12:33:02;9.60;99.90
57753;DHT22;43583;53.132;6.574;2023-11-21T12:35:31;9.60;99.90
57753;DHT22;43583;53.132;6.574;2023-11-21T12:37:59;9.70;99.90
57753;DHT22;43583;53.132;6.574;2023-11-21T12:40:25;9.70;99.90
57753;DHT22;43583;53.132;6.574;2023-11-21T12:42:56;9.70;99.90
57753;DHT22;43583;53.132;6.574;2023-11-21T12:45:23;9.80;99.90
57753;DHT22;43583;53.132;6.574;2023-11-21T12:48:04;9.90;99.90
57753;DHT22;43583;53.132;6.574;2023-11-21T12:50:34;10.00;99.90
57753;DHT22;43583;53.132;6.574;2023-11-21T12:53:06;10.00;99.90
57753;DHT22;43583;53.132;6.574;2023-11-21T12:55:34;9.80;99.90
57753;DHT22;43583;53.132;6.574;2023-11-21T12:58:07;9.70;99.90
57753;DHT22;43583;53.132;6.574;2023-11-21T13:00:43;9.60;99.90
57753;DHT22;43583;53.132;6.574;2023-11-21T13:03:12;9.60;99.90
57753;DHT22;43583;53.132;6.574;2023-11-21T13:05:41;9.50;99.90
57753;DHT22;43583;53.132;6.574;2023-11-21T13:08:12;9.50;99.90
57753;DHT22;43583;53.132;6.574;2023-11-21T13:10:40;9.50;99.90
57753;DHT22;43583;53.132;6.574;2023-11-21T13:13:09;9.60;99.90
57753;DHT22;43583;53.132;6.574;2023-11-21T13:15:39;9.70;99.90
57753;DHT22;43583;53.132;6.574;2023-11-21T13:18:06;9.80;99.90
57753;DHT22;43583;53.132;6.574;2023-11-21T13:20:32;10.00;99.90
57753;DHT22;43583;53.132;6.574;2023-11-21T13:22:58;10.10;99.90
57753;DHT22;43583;53.132;6.574;2023-11-21T13:25:30;10.20;99.90
57753;DHT22;43583;53.132;6.574;2023-11-21T13:27:59;10.20;99.90
57753;DHT22;43583;53.132;6.574;2023-11-21T13:30:26;10.20;99.90
57753;DHT22;43583;53.132;6.574;2023-11-21T13:32:53;10.10;99.90
57753;DHT22;43583;53.132;6.574;2023-11-21T13:35:23;10.00;99.90
57753;DHT22;43583;53.132;6.574;2023-11-21T13:37:57;10.00;99.90
57753;DHT22;43583;53.132;6.574;2023-11-21T13:40:25;9.90;99.90
57753;DHT22;43583;53.132;6.574;2023-11-21T13:42:55;9.90;99.90
57753;DHT22;43583;53.132;6.574;2023-11-21T13:45:25;9.80;99.90
57753;DHT22;43583;53.132;6.574;2023-11-21T13:47:52;9.80;99.90
57753;DHT22;43583;53.132;6.574;2023-11-21T13:50:22;9.70;99.90
57753;DHT22;43583;53.132;6.574;2023-11-21T13:52:54;9.60;99.90
57753;DHT22;43583;53.132;6.574;2023-11-21T13:55:20;9.60;99.90
57753;DHT22;43583;53.132;6.574;2023-11-21T13:57:47;9.50;99.90
57753;DHT22;43583;53.132;6.574;2023-11-21T14:00:17;9.50;99.90
57753;DHT22;43583;53.132;6.574;2023-11-21T14:03:08;9.40;99.90
57753;DHT22;43583;53.132;6.574;2023-11-21T14:05:43;9.30;99.90
57753;DHT22;43583;53.132;6.574;2023-11-21T14:08:10;9.30;99.90
57753;DHT22;43583;53.132;6.574;2023-11-21T14:10:37;9.30;99.90
57753;DHT22;43583;53.132;6.574;2023-11-21T14:13:09;9.20;99.90
57753;DHT22;43583;53.132;6.574;2023-11-21T14:15:36;9.20;99.90
57753;DHT22;43583;53.132;6.574;2023-11-21T14:18:08;9.10;99.90
57753;DHT22;43583;53.132;6.574;2023-11-21T14:20:39;9.10;99.90
57753;DHT22;43583;53.132;6.574;2023-11-21T14:23:05;9.10;99.90
57753;DHT22;43583;53.132;6.574;2023-11-21T14:25:35;9.10;99.90
57753;DHT22;43583;53.132;6.574;2023-11-21T14:28:02;9.00;99.90
57753;DHT22;43583;53.132;6.574;2023-11-21T14:30:29;9.00;99.90
57753;DHT22;43583;53.132;6.574;2023-11-21T14:32:58;9.00;99.90
57753;DHT22;43583;53.132;6.574;2023-11-21T14:35:23;9.00;99.90
57753;DHT22;43583;53.132;6.574;2023-11-21T14:37:49;9.00;99.90
57753;DHT22;43583;53.132;6.574;2023-11-21T14:40:15;8.90;99.90
57753;DHT22;43583;53.132;6.574;2023-11-21T14:42:42;8.90;99.90
57753;DHT22;43583;53.132;6.574;2023-11-21T14:45:09;8.90;99.90
57753;DHT22;43583;53.132;6.574;2023-11-21T14:47:37;8.90;99.90
57753;DHT22;43583;53.132;6.574;2023-11-21T14:50:08;8.90;99.90
57753;DHT22;43583;53.132;6.574;2023-11-21T14:52:53;8.90;99.90
57753;DHT22;43583;53.132;6.574;2023-11-21T14:55:25;8.80;99.90
57753;DHT22;43583;53.132;6.574;2023-11-21T14:57:58;8.80;99.90
57753;DHT22;43583;53.132;6.574;2023-11-21T15:00:28;8.80;99.90
57753;DHT22;43583;53.132;6.574;2023-11-21T15:02:59;8.80;99.90
57753;DHT22;43583;53.132;6.574;2023-11-21T15:05:26;8.80;99.90
57753;DHT22;43583;53.132;6.574;2023-11-21T15:07:53;8.80;99.90
57753;DHT22;43583;53.132;6.574;2023-11-21T15:10:22;8.70;99.90
57753;DHT22;43583;53.132;6.574;2023-11-21T15:12:54;8.70;99.90
57753;DHT22;43583;53.132;6.574;2023-11-21T15:15:20;8.60;99.90
57753;DHT22;43583;53.132;6.574;2023-11-21T15:17:46;8.60;99.90
57753;DHT22;43583;53.132;6.574;2023-11-21T15:20:13;8.60;99.90
57753;DHT22;43583;53.132;6.574;2023-11-21T15:22:44;8.60;99.90
57753;DHT22;43583;53.132;6.574;2023-11-21T15:25:10;8.60;99.90
57753;DHT22;43583;53.132;6.574;2023-11-21T15:27:36;8.60;99.90
57753;DHT22;43583;53.132;6.574;2023-11-21T15:30:02;8.50;99.90
57753;DHT22;43583;53.132;6.574;2023-11-21T15:32:29;8.50;99.90
57753;DHT22;43583;53.132;6.574;2023-11-21T15:34:54;8.50;99.90
57753;DHT22;43583;53.132;6.574;2023-11-21T15:37:20;8.50;99.90
57753;DHT22;43583;53.132;6.574;2023-11-21T15:39:45;8.50;99.90
57753;DHT22;43583;53.132;6.574;2023-11-21T15:42:12;8.40;99.90
57753;DHT22;43583;53.132;6.574;2023-11-21T15:44:37;8.40;99.90
57753;DHT22;43583;53.132;6.574;2023-11-21T15:47:04;8.40;99.90
57753;DHT22;43583;53.132;6.574;2023-11-21T15:49:31;8.40;99.90
57753;DHT22;43583;53.132;6.574;2023-11-21T15:52:01;8.40;99.90
57753;DHT22;43583;53.132;6.574;2023-11-21T15:54:28;8.30;99.90
57753;DHT22;43583;53.132;6.574;2023-11-21T15:56:54;8.20;99.90
57753;DHT22;43583;53.132;6.574;2023-11-21T15:59:25;8.20;99.90
57753;DHT22;43583;53.132;6.574;2023-11-21T16:01:59;8.10;99.90
57753;DHT22;43583;53.132;6.574;2023-11-21T16:04:26;8.00;99.90
57753;DHT22;43583;53.132;6.574;2023-11-21T16:06:54;7.90;99.90